sensor_id;sensor_type;location;lat;lon;timestamp;P1;durP1;ratioP1;P2;durP2;ratioP2
66256;SDS011;53049;43.446;3.698;2022-10-15T00:00:34;2.47;;;1.20;;
66256;SDS011;53049;43.446;3.698;2022-10-15T00:03:00;1.67;;;1.27;;
66256;SDS011;53049;43.446;3.698;2022-10-15T00:05:26;3.20;;;1.40;;
66256;SDS011;53049;43.446;3.698;2022-10-15T00:07:52;2.10;;;1.33;;
66256;SDS011;53049;43.446;3.698;2022-10-15T00:10:18;4.38;;;1.38;;
66256;SDS011;53049;43.446;3.698;2022-10-15T00:12:45;2.75;;;1.38;;
66256;SDS011;53049;43.446;3.698;2022-10-15T00:15:11;1.98;;;1.45;;
66256;SDS011;53049;43.446;3.698;2022-10-15T00:17:37;1.27;;;1.13;;
66256;SDS011;53049;43.446;3.698;2022-10-15T00:20:04;4.35;;;1.55;;
66256;SDS011;53049;43.446;3.698;2022-10-15T00:22:31;2.33;;;1.40;;
66256;SDS011;53049;43.446;3.698;2022-10-15T00:24:57;1.48;;;1.15;;
66256;SDS011;53049;43.446;3.698;2022-10-15T00:27:23;2.65;;;1.55;;
66256;SDS011;53049;43.446;3.698;2022-10-15T00:29:48;1.40;;;1.30;;
66256;SDS011;53049;43.446;3.698;2022-10-15T00:32:14;1.55;;;1.23;;
66256;SDS011;53049;43.446;3.698;2022-10-15T00:34:40;2.75;;;1.13;;
66256;SDS011;53049;43.446;3.698;2022-10-15T00:37:06;1.85;;;1.42;;
66256;SDS011;53049;43.446;3.698;2022-10-15T00:39:32;3.15;;;1.20;;
66256;SDS011;53049;43.446;3.698;2022-10-15T00:41:58;2.17;;;1.30;;
66256;SDS011;53049;43.446;3.698;2022-10-15T00:51:56;2.42;;;1.30;;
66256;SDS011;53049;43.446;3.698;2022-10-15T00:54:26;3.92;;;1.70;;
66256;SDS011;53049;43.446;3.698;2022-10-15T00:56:55;3.28;;;1.48;;
66256;SDS011;53049;43.446;3.698;2022-10-15T00:59:22;2.33;;;1.67;;
66256;SDS011;53049;43.446;3.698;2022-10-15T01:01:50;1.85;;;1.40;;
66256;SDS011;53049;43.446;3.698;2022-10-15T01:04:16;1.70;;;1.50;;
66256;SDS011;53049;43.446;3.698;2022-10-15T01:06:43;4.05;;;1.65;;
66256;SDS011;53049;43.446;3.698;2022-10-15T01:09:10;2.40;;;1.45;;
66256;SDS011;53049;43.446;3.698;2022-10-15T01:11:50;2.90;;;1.40;;
66256;SDS011;53049;43.446;3.698;2022-10-15T01:23:13;5.10;;;1.75;;
66256;SDS011;53049;43.446;3.698;2022-10-15T01:28:59;2.97;;;1.50;;
66256;SDS011;53049;43.446;3.698;2022-10-15T01:34:45;2.85;;;1.65;;
66256;SDS011;53049;43.446;3.698;2022-10-15T01:37:35;2.72;;;1.48;;
66256;SDS011;53049;43.446;3.698;2022-10-15T01:40:21;3.80;;;1.67;;
66256;SDS011;53049;43.446;3.698;2022-10-15T01:43:08;3.42;;;1.50;;
66256;SDS011;53049;43.446;3.698;2022-10-15T01:45:42;2.55;;;1.40;;
66256;SDS011;53049;43.446;3.698;2022-10-15T01:48:22;3.53;;;1.50;;
66256;SDS011;53049;43.446;3.698;2022-10-15T01:50:52;3.58;;;1.73;;
66256;SDS011;53049;43.446;3.698;2022-10-15T01:53:21;2.05;;;1.40;;
66256;SDS011;53049;43.446;3.698;2022-10-15T01:55:51;3.88;;;1.60;;
66256;SDS011;53049;43.446;3.698;2022-10-15T01:58:23;3.42;;;1.55;;
66256;SDS011;53049;43.446;3.698;2022-10-15T02:00:51;2.05;;;1.40;;
66256;SDS011;53049;43.446;3.698;2022-10-15T02:03:19;1.35;;;1.20;;
66256;SDS011;53049;43.446;3.698;2022-10-15T02:06:07;1.73;;;1.45;;
66256;SDS011;53049;43.446;3.698;2022-10-15T02:11:28;2.13;;;1.40;;
66256;SDS011;53049;43.446;3.698;2022-10-15T02:14:03;2.55;;;1.40;;
66256;SDS011;53049;43.446;3.698;2022-10-15T02:24:52;1.52;;;1.40;;
66256;SDS011;53049;43.446;3.698;2022-10-15T02:27:22;3.20;;;1.40;;
66256;SDS011;53049;43.446;3.698;2022-10-15T02:29:50;2.55;;;1.40;;
66256;SDS011;53049;43.446;3.698;2022-10-15T02:32:18;2.50;;;1.38;;
66256;SDS011;53049;43.446;3.698;2022-10-15T02:34:46;3.42;;;1.30;;
66256;SDS011;53049;43.446;3.698;2022-10-15T02:37:13;2.95;;;1.48;;
66256;SDS011;53049;43.446;3.698;2022-10-15T02:39:41;2.63;;;1.30;;
66256;SDS011;53049;43.446;3.698;2022-10-15T02:42:08;1.90;;;1.40;;
66256;SDS011;53049;43.446;3.698;2022-10-15T02:44:34;2.42;;;1.40;;
66256;SDS011;53049;43.446;3.698;2022-10-15T02:46:59;2.67;;;1.40;;
66256;SDS011;53049;43.446;3.698;2022-10-15T02:49:25;3.42;;;1.50;;
66256;SDS011;53049;43.446;3.698;2022-10-15T02:51:51;3.25;;;1.30;;
66256;SDS011;53049;43.446;3.698;2022-10-15T02:54:17;5.15;;;1.55;;
66256;SDS011;53049;43.446;3.698;2022-10-15T02:56:43;1.67;;;1.20;;
66256;SDS011;53049;43.446;3.698;2022-10-15T02:59:09;3.13;;;1.60;;
66256;SDS011;53049;43.446;3.698;2022-10-15T03:01:34;5.57;;;1.60;;
66256;SDS011;53049;43.446;3.698;2022-10-15T03:04:00;4.22;;;1.40;;
66256;SDS011;53049;43.446;3.698;2022-10-15T03:06:26;1.90;;;1.45;;
66256;SDS011;53049;43.446;3.698;2022-10-15T03:08:52;1.88;;;1.38;;
66256;SDS011;53049;43.446;3.698;2022-10-15T03:11:17;3.08;;;1.38;;
66256;SDS011;53049;43.446;3.698;2022-10-15T03:13:43;2.53;;;1.35;;
66256;SDS011;53049;43.446;3.698;2022-10-15T03:16:09;1.42;;;1.33;;
66256;SDS011;53049;43.446;3.698;2022-10-15T03:18:36;1.52;;;1.30;;
66256;SDS011;53049;43.446;3.698;2022-10-15T03:21:02;2.60;;;1.45;;
66256;SDS011;53049;43.446;3.698;2022-10-15T03:23:28;3.47;;;1.33;;
66256;SDS011;53049;43.446;3.698;2022-10-15T03:25:54;2.50;;;1.40;;
66256;SDS011;53049;43.446;3.698;2022-10-15T03:28:20;2.70;;;1.50;;
66256;SDS011;53049;43.446;3.698;2022-10-15T03:30:46;4.07;;;1.60;;
66256;SDS011;53049;43.446;3.698;2022-10-15T03:33:12;2.17;;;1.48;;
66256;SDS011;53049;43.446;3.698;2022-10-15T03:35:38;3.47;;;1.58;;
66256;SDS011;53049;43.446;3.698;2022-10-15T03:38:04;2.70;;;1.40;;
66256;SDS011;53049;43.446;3.698;2022-10-15T03:40:30;1.60;;;1.10;;
66256;SDS011;53049;43.446;3.698;2022-10-15T03:42:56;1.80;;;1.40;;
66256;SDS011;53049;43.446;3.698;2022-10-15T03:45:22;3.50;;;1.83;;
66256;SDS011;53049;43.446;3.698;2022-10-15T03:47:48;1.50;;;1.20;;
66256;SDS011;53049;43.446;3.698;2022-10-15T03:50:15;2.17;;;1.42;;
66256;SDS011;53049;43.446;3.698;2022-10-15T03:52:41;1.92;;;1.27;;
66256;SDS011;53049;43.446;3.698;2022-10-15T03:55:07;2.42;;;1.48;;
66256;SDS011;53049;43.446;3.698;2022-10-15T03:57:34;4.47;;;1.70;;
66256;SDS011;53049;43.446;3.698;2022-10-15T04:00:00;2.25;;;1.65;;
66256;SDS011;53049;43.446;3.698;2022-10-15T04:02:26;2.90;;;1.30;;
66256;SDS011;53049;43.446;3.698;2022-10-15T04:04:52;1.50;;;1.40;;
66256;SDS011;53049;43.446;3.698;2022-10-15T04:07:19;2.97;;;1.40;;
66256;SDS011;53049;43.446;3.698;2022-10-15T04:09:45;7.07;;;1.55;;
66256;SDS011;53049;43.446;3.698;2022-10-15T04:12:11;2.50;;;1.40;;
66256;SDS011;53049;43.446;3.698;2022-10-15T04:14:38;2.83;;;1.42;;
66256;SDS011;53049;43.446;3.698;2022-10-15T04:17:04;4.18;;;1.58;;
66256;SDS011;53049;43.446;3.698;2022-10-15T04:19:31;4.10;;;1.90;;
66256;SDS011;53049;43.446;3.698;2022-10-15T04:21:56;2.97;;;1.63;;
66256;SDS011;53049;43.446;3.698;2022-10-15T04:24:22;3.08;;;1.60;;
66256;SDS011;53049;43.446;3.698;2022-10-15T04:26:48;3.97;;;1.40;;
66256;SDS011;53049;43.446;3.698;2022-10-15T04:29:14;1.48;;;1.30;;
66256;SDS011;53049;43.446;3.698;2022-10-15T04:31:40;2.83;;;1.52;;
66256;SDS011;53049;43.446;3.698;2022-10-15T04:34:06;1.33;;;1.23;;
66256;SDS011;53049;43.446;3.698;2022-10-15T04:36:32;3.72;;;1.65;;
66256;SDS011;53049;43.446;3.698;2022-10-15T04:38:59;2.70;;;1.58;;
66256;SDS011;53049;43.446;3.698;2022-10-15T04:41:25;3.13;;;1.58;;
66256;SDS011;53049;43.446;3.698;2022-10-15T04:43:51;1.73;;;1.40;;
66256;SDS011;53049;43.446;3.698;2022-10-15T04:46:17;3.88;;;1.73;;
66256;SDS011;53049;43.446;3.698;2022-10-15T04:48:44;6.05;;;2.05;;
66256;SDS011;53049;43.446;3.698;2022-10-15T04:51:13;4.60;;;1.65;;
66256;SDS011;53049;43.446;3.698;2022-10-15T04:53:41;3.40;;;1.73;;
66256;SDS011;53049;43.446;3.698;2022-10-15T04:56:09;4.57;;;1.55;;
66256;SDS011;53049;43.446;3.698;2022-10-15T04:58:39;2.92;;;1.55;;
66256;SDS011;53049;43.446;3.698;2022-10-15T05:01:07;3.80;;;1.70;;
66256;SDS011;53049;43.446;3.698;2022-10-15T05:03:37;3.47;;;2.00;;
66256;SDS011;53049;43.446;3.698;2022-10-15T05:06:05;3.00;;;1.70;;
66256;SDS011;53049;43.446;3.698;2022-10-15T05:08:32;3.03;;;2.05;;
66256;SDS011;53049;43.446;3.698;2022-10-15T05:11:00;2.40;;;1.45;;
66256;SDS011;53049;43.446;3.698;2022-10-15T05:13:26;3.28;;;1.63;;
66256;SDS011;53049;43.446;3.698;2022-10-15T05:15:52;3.50;;;1.63;;
66256;SDS011;53049;43.446;3.698;2022-10-15T05:18:18;2.72;;;1.45;;
66256;SDS011;53049;43.446;3.698;2022-10-15T05:20:43;1.88;;;1.50;;
66256;SDS011;53049;43.446;3.698;2022-10-15T05:23:09;3.47;;;1.70;;
66256;SDS011;53049;43.446;3.698;2022-10-15T05:25:35;2.90;;;1.70;;
66256;SDS011;53049;43.446;3.698;2022-10-15T05:28:00;4.65;;;1.77;;
66256;SDS011;53049;43.446;3.698;2022-10-15T05:30:26;3.85;;;2.10;;
66256;SDS011;53049;43.446;3.698;2022-10-15T05:32:52;3.53;;;1.55;;
66256;SDS011;53049;43.446;3.698;2022-10-15T05:35:18;2.30;;;1.65;;
66256;SDS011;53049;43.446;3.698;2022-10-15T05:37:44;3.05;;;1.70;;
66256;SDS011;53049;43.446;3.698;2022-10-15T05:40:10;4.22;;;1.75;;
66256;SDS011;53049;43.446;3.698;2022-10-15T05:42:36;4.30;;;1.52;;
66256;SDS011;53049;43.446;3.698;2022-10-15T05:45:02;3.88;;;1.70;;
66256;SDS011;53049;43.446;3.698;2022-10-15T05:47:28;2.97;;;1.55;;
66256;SDS011;53049;43.446;3.698;2022-10-15T05:49:53;2.47;;;1.73;;
66256;SDS011;53049;43.446;3.698;2022-10-15T05:52:19;4.80;;;1.73;;
66256;SDS011;53049;43.446;3.698;2022-10-15T05:54:45;2.63;;;1.70;;
66256;SDS011;53049;43.446;3.698;2022-10-15T05:57:10;2.33;;;1.40;;
66256;SDS011;53049;43.446;3.698;2022-10-15T05:59:36;4.53;;;1.83;;
66256;SDS011;53049;43.446;3.698;2022-10-15T06:02:01;2.80;;;1.63;;
66256;SDS011;53049;43.446;3.698;2022-10-15T06:04:27;4.40;;;1.48;;
66256;SDS011;53049;43.446;3.698;2022-10-15T06:06:53;3.28;;;1.75;;
66256;SDS011;53049;43.446;3.698;2022-10-15T06:09:18;4.97;;;1.60;;
66256;SDS011;53049;43.446;3.698;2022-10-15T06:11:44;4.15;;;1.60;;
66256;SDS011;53049;43.446;3.698;2022-10-15T06:14:11;2.80;;;1.60;;
66256;SDS011;53049;43.446;3.698;2022-10-15T06:16:36;3.75;;;1.60;;
66256;SDS011;53049;43.446;3.698;2022-10-15T06:19:02;3.88;;;1.67;;
66256;SDS011;53049;43.446;3.698;2022-10-15T06:21:28;5.93;;;1.52;;
66256;SDS011;53049;43.446;3.698;2022-10-15T06:23:53;2.65;;;1.63;;
66256;SDS011;53049;43.446;3.698;2022-10-15T06:26:19;3.08;;;1.60;;
66256;SDS011;53049;43.446;3.698;2022-10-15T06:28:44;2.28;;;1.38;;
66256;SDS011;53049;43.446;3.698;2022-10-15T06:31:10;4.25;;;1.60;;
66256;SDS011;53049;43.446;3.698;2022-10-15T06:33:36;2.33;;;1.45;;
66256;SDS011;53049;43.446;3.698;2022-10-15T06:36:03;3.05;;;1.70;;
66256;SDS011;53049;43.446;3.698;2022-10-15T06:38:30;3.03;;;1.40;;
66256;SDS011;53049;43.446;3.698;2022-10-15T06:40:56;3.70;;;1.70;;
66256;SDS011;53049;43.446;3.698;2022-10-15T06:43:22;1.70;;;1.38;;
66256;SDS011;53049;43.446;3.698;2022-10-15T06:45:48;3.58;;;1.60;;
66256;SDS011;53049;43.446;3.698;2022-10-15T06:48:14;3.00;;;1.60;;
66256;SDS011;53049;43.446;3.698;2022-10-15T06:50:39;3.63;;;1.65;;
66256;SDS011;53049;43.446;3.698;2022-10-15T06:53:05;3.00;;;1.65;;
66256;SDS011;53049;43.446;3.698;2022-10-15T06:55:32;4.05;;;1.77;;
66256;SDS011;53049;43.446;3.698;2022-10-15T06:57:58;4.47;;;1.80;;
66256;SDS011;53049;43.446;3.698;2022-10-15T07:00:24;2.65;;;1.60;;
66256;SDS011;53049;43.446;3.698;2022-10-15T07:02:50;3.45;;;1.90;;
66256;SDS011;53049;43.446;3.698;2022-10-15T07:05:17;4.95;;;1.88;;
66256;SDS011;53049;43.446;3.698;2022-10-15T07:07:50;2.92;;;1.60;;
66256;SDS011;53049;43.446;3.698;2022-10-15T07:10:19;4.57;;;1.95;;
66256;SDS011;53049;43.446;3.698;2022-10-15T07:12:45;3.25;;;1.73;;
66256;SDS011;53049;43.446;3.698;2022-10-15T07:15:11;1.98;;;1.70;;
66256;SDS011;53049;43.446;3.698;2022-10-15T07:17:37;4.50;;;1.98;;
66256;SDS011;53049;43.446;3.698;2022-10-15T07:20:04;2.72;;;1.70;;
66256;SDS011;53049;43.446;3.698;2022-10-15T07:22:30;4.32;;;2.05;;
66256;SDS011;53049;43.446;3.698;2022-10-15T07:24:56;4.03;;;1.70;;
66256;SDS011;53049;43.446;3.698;2022-10-15T07:27:21;3.65;;;1.80;;
66256;SDS011;53049;43.446;3.698;2022-10-15T07:29:47;3.63;;;1.73;;
66256;SDS011;53049;43.446;3.698;2022-10-15T07:32:13;3.90;;;1.90;;
66256;SDS011;53049;43.446;3.698;2022-10-15T07:34:38;3.88;;;1.90;;
66256;SDS011;53049;43.446;3.698;2022-10-15T07:37:04;4.13;;;1.95;;
66256;SDS011;53049;43.446;3.698;2022-10-15T07:39:30;4.05;;;2.10;;
66256;SDS011;53049;43.446;3.698;2022-10-15T07:41:55;3.88;;;1.88;;
66256;SDS011;53049;43.446;3.698;2022-10-15T07:44:21;3.08;;;1.95;;
66256;SDS011;53049;43.446;3.698;2022-10-15T07:46:46;4.78;;;2.00;;
66256;SDS011;53049;43.446;3.698;2022-10-15T07:49:12;2.85;;;2.00;;
66256;SDS011;53049;43.446;3.698;2022-10-15T07:51:40;4.57;;;2.38;;
66256;SDS011;53049;43.446;3.698;2022-10-15T07:54:06;4.30;;;2.60;;
66256;SDS011;53049;43.446;3.698;2022-10-15T07:56:32;4.88;;;2.30;;
66256;SDS011;53049;43.446;3.698;2022-10-15T07:58:57;5.18;;;2.28;;
66256;SDS011;53049;43.446;3.698;2022-10-15T08:01:23;5.93;;;2.28;;
66256;SDS011;53049;43.446;3.698;2022-10-15T08:03:49;5.18;;;2.60;;
66256;SDS011;53049;43.446;3.698;2022-10-15T08:06:14;7.03;;;2.70;;
66256;SDS011;53049;43.446;3.698;2022-10-15T08:08:41;5.75;;;2.75;;
66256;SDS011;53049;43.446;3.698;2022-10-15T08:11:11;4.05;;;2.50;;
66256;SDS011;53049;43.446;3.698;2022-10-15T08:13:38;5.05;;;2.85;;
66256;SDS011;53049;43.446;3.698;2022-10-15T08:16:06;4.03;;;2.55;;
66256;SDS011;53049;43.446;3.698;2022-10-15T08:18:36;5.50;;;2.65;;
66256;SDS011;53049;43.446;3.698;2022-10-15T08:21:02;4.50;;;2.78;;
66256;SDS011;53049;43.446;3.698;2022-10-15T08:23:30;4.05;;;2.40;;
66256;SDS011;53049;43.446;3.698;2022-10-15T08:25:58;4.03;;;2.45;;
66256;SDS011;53049;43.446;3.698;2022-10-15T08:28:25;4.50;;;2.33;;
66256;SDS011;53049;43.446;3.698;2022-10-15T08:30:59;4.70;;;2.30;;
66256;SDS011;53049;43.446;3.698;2022-10-15T08:33:26;3.35;;;2.20;;
66256;SDS011;53049;43.446;3.698;2022-10-15T08:35:52;4.20;;;2.40;;
66256;SDS011;53049;43.446;3.698;2022-10-15T08:38:18;5.07;;;2.40;;
66256;SDS011;53049;43.446;3.698;2022-10-15T08:40:48;3.63;;;2.05;;
66256;SDS011;53049;43.446;3.698;2022-10-15T08:43:23;3.17;;;2.05;;
66256;SDS011;53049;43.446;3.698;2022-10-15T08:45:50;4.30;;;2.25;;
66256;SDS011;53049;43.446;3.698;2022-10-15T08:48:27;4.68;;;1.90;;
66256;SDS011;53049;43.446;3.698;2022-10-15T08:51:01;4.20;;;2.17;;
66256;SDS011;53049;43.446;3.698;2022-10-15T08:53:36;4.85;;;1.92;;
66256;SDS011;53049;43.446;3.698;2022-10-15T08:59:32;2.92;;;1.75;;
66256;SDS011;53049;43.446;3.698;2022-10-15T09:07:38;3.33;;;1.80;;
66256;SDS011;53049;43.446;3.698;2022-10-15T09:11:12;4.47;;;1.45;;
66256;SDS011;53049;43.446;3.698;2022-10-15T09:13:39;6.07;;;1.88;;
66256;SDS011;53049;43.446;3.698;2022-10-15T09:18:46;3.35;;;1.77;;
66256;SDS011;53049;43.446;3.698;2022-10-15T09:21:16;2.72;;;1.80;;
66256;SDS011;53049;43.446;3.698;2022-10-15T09:23:44;5.97;;;2.22;;
66256;SDS011;53049;43.446;3.698;2022-10-15T09:26:19;3.08;;;1.80;;
66256;SDS011;53049;43.446;3.698;2022-10-15T09:28:51;1.95;;;1.50;;
66256;SDS011;53049;43.446;3.698;2022-10-15T09:31:30;2.13;;;1.63;;
66256;SDS011;53049;43.446;3.698;2022-10-15T09:34:04;4.15;;;2.00;;
66256;SDS011;53049;43.446;3.698;2022-10-15T09:36:55;3.30;;;1.73;;
66256;SDS011;53049;43.446;3.698;2022-10-15T09:42:24;5.65;;;2.03;;
66256;SDS011;53049;43.446;3.698;2022-10-15T09:44:55;4.43;;;2.08;;
66256;SDS011;53049;43.446;3.698;2022-10-15T09:49:54;5.55;;;2.20;;
66256;SDS011;53049;43.446;3.698;2022-10-15T09:52:29;3.40;;;1.90;;
66256;SDS011;53049;43.446;3.698;2022-10-15T09:58:03;4.65;;;1.90;;
66256;SDS011;53049;43.446;3.698;2022-10-15T10:00:51;6.47;;;3.03;;
66256;SDS011;53049;43.446;3.698;2022-10-15T10:03:40;5.00;;;1.85;;
66256;SDS011;53049;43.446;3.698;2022-10-15T10:06:07;4.57;;;2.10;;
66256;SDS011;53049;43.446;3.698;2022-10-15T10:08:56;4.15;;;2.20;;
66256;SDS011;53049;43.446;3.698;2022-10-15T10:11:23;8.43;;;4.75;;
66256;SDS011;53049;43.446;3.698;2022-10-15T10:13:56;16.83;;;11.82;;
66256;SDS011;53049;43.446;3.698;2022-10-15T10:16:24;6.90;;;4.40;;
66256;SDS011;53049;43.446;3.698;2022-10-15T10:19:01;11.15;;;8.10;;
66256;SDS011;53049;43.446;3.698;2022-10-15T10:21:37;9.38;;;7.05;;
66256;SDS011;53049;43.446;3.698;2022-10-15T10:24:19;6.88;;;5.07;;
66256;SDS011;53049;43.446;3.698;2022-10-15T10:26:54;7.30;;;3.35;;
66256;SDS011;53049;43.446;3.698;2022-10-15T10:29:21;10.18;;;4.32;;
66256;SDS011;53049;43.446;3.698;2022-10-15T10:31:47;7.18;;;3.45;;
66256;SDS011;53049;43.446;3.698;2022-10-15T10:34:16;8.68;;;3.25;;
66256;SDS011;53049;43.446;3.698;2022-10-15T10:36:49;7.88;;;2.92;;
66256;SDS011;53049;43.446;3.698;2022-10-15T10:39:29;6.28;;;2.80;;
66256;SDS011;53049;43.446;3.698;2022-10-15T10:41:57;7.30;;;2.78;;
66256;SDS011;53049;43.446;3.698;2022-10-15T10:44:35;5.95;;;2.70;;
66256;SDS011;53049;43.446;3.698;2022-10-15T10:49:45;5.65;;;2.40;;
66256;SDS011;53049;43.446;3.698;2022-10-15T10:55:16;7.20;;;2.70;;
66256;SDS011;53049;43.446;3.698;2022-10-15T11:00:11;9.95;;;3.03;;
66256;SDS011;53049;43.446;3.698;2022-10-15T11:02:50;6.75;;;2.80;;
66256;SDS011;53049;43.446;3.698;2022-10-15T11:05:28;5.32;;;2.75;;
66256;SDS011;53049;43.446;3.698;2022-10-15T11:11:06;5.03;;;2.55;;
66256;SDS011;53049;43.446;3.698;2022-10-15T11:13:48;8.55;;;3.00;;
66256;SDS011;53049;43.446;3.698;2022-10-15T11:16:46;7.80;;;3.03;;
66256;SDS011;53049;43.446;3.698;2022-10-15T11:27:47;6.15;;;3.38;;
66256;SDS011;53049;43.446;3.698;2022-10-15T11:38:41;5.32;;;2.97;;
66256;SDS011;53049;43.446;3.698;2022-10-15T11:47:04;6.80;;;2.85;;
66256;SDS011;53049;43.446;3.698;2022-10-15T11:50:11;5.95;;;2.90;;
66256;SDS011;53049;43.446;3.698;2022-10-15T11:53:00;5.80;;;3.30;;
66256;SDS011;53049;43.446;3.698;2022-10-15T11:55:38;5.47;;;3.10;;
66256;SDS011;53049;43.446;3.698;2022-10-15T11:58:26;4.90;;;3.20;;
66256;SDS011;53049;43.446;3.698;2022-10-15T12:01:54;8.57;;;3.47;;
66256;SDS011;53049;43.446;3.698;2022-10-15T12:05:04;5.63;;;3.13;;
66256;SDS011;53049;43.446;3.698;2022-10-15T12:07:12;7.40;;;3.50;;
66256;SDS011;53049;43.446;3.698;2022-10-15T12:09:47;8.52;;;3.35;;
66256;SDS011;53049;43.446;3.698;2022-10-15T12:21:32;7.72;;;3.33;;
66256;SDS011;53049;43.446;3.698;2022-10-15T12:30:31;7.40;;;3.60;;
66256;SDS011;53049;43.446;3.698;2022-10-15T12:32:44;6.20;;;3.90;;
66256;SDS011;53049;43.446;3.698;2022-10-15T12:40:59;6.45;;;4.20;;
66256;SDS011;53049;43.446;3.698;2022-10-15T12:43:34;6.63;;;4.10;;
66256;SDS011;53049;43.446;3.698;2022-10-15T12:46:06;6.03;;;3.78;;
66256;SDS011;53049;43.446;3.698;2022-10-15T12:48:36;7.95;;;3.88;;
66256;SDS011;53049;43.446;3.698;2022-10-15T12:51:40;10.95;;;3.80;;
66256;SDS011;53049;43.446;3.698;2022-10-15T12:53:59;7.45;;;4.28;;
66256;SDS011;53049;43.446;3.698;2022-10-15T12:56:38;7.20;;;4.25;;
66256;SDS011;53049;43.446;3.698;2022-10-15T12:59:27;9.93;;;4.40;;
66256;SDS011;53049;43.446;3.698;2022-10-15T13:05:04;7.95;;;4.00;;
66256;SDS011;53049;43.446;3.698;2022-10-15T13:07:33;10.23;;;4.43;;
66256;SDS011;53049;43.446;3.698;2022-10-15T13:10:15;5.82;;;3.53;;
66256;SDS011;53049;43.446;3.698;2022-10-15T13:13:06;11.68;;;4.38;;
66256;SDS011;53049;43.446;3.698;2022-10-15T13:15:37;7.68;;;3.20;;
66256;SDS011;53049;43.446;3.698;2022-10-15T13:18:07;7.07;;;3.78;;
66256;SDS011;53049;43.446;3.698;2022-10-15T13:20:37;7.03;;;4.18;;
66256;SDS011;53049;43.446;3.698;2022-10-15T13:28:36;7.53;;;3.80;;
66256;SDS011;53049;43.446;3.698;2022-10-15T13:31:06;5.00;;;3.10;;
66256;SDS011;53049;43.446;3.698;2022-10-15T13:33:39;5.75;;;3.45;;
66256;SDS011;53049;43.446;3.698;2022-10-15T13:36:08;7.28;;;3.83;;
66256;SDS011;53049;43.446;3.698;2022-10-15T13:38:41;8.13;;;3.33;;
66256;SDS011;53049;43.446;3.698;2022-10-15T13:41:07;6.80;;;3.60;;
66256;SDS011;53049;43.446;3.698;2022-10-15T13:43:33;8.98;;;3.67;;
66256;SDS011;53049;43.446;3.698;2022-10-15T13:45:59;7.55;;;3.50;;
66256;SDS011;53049;43.446;3.698;2022-10-15T13:48:40;6.03;;;3.40;;
66256;SDS011;53049;43.446;3.698;2022-10-15T13:51:12;6.43;;;3.67;;
66256;SDS011;53049;43.446;3.698;2022-10-15T13:53:39;11.52;;;3.80;;
66256;SDS011;53049;43.446;3.698;2022-10-15T13:59:01;6.15;;;3.50;;
66256;SDS011;53049;43.446;3.698;2022-10-15T14:01:28;12.32;;;3.97;;
66256;SDS011;53049;43.446;3.698;2022-10-15T14:03:58;7.18;;;3.25;;
66256;SDS011;53049;43.446;3.698;2022-10-15T14:06:32;5.70;;;3.38;;
66256;SDS011;53049;43.446;3.698;2022-10-15T14:09:00;8.27;;;3.42;;
66256;SDS011;53049;43.446;3.698;2022-10-15T14:11:42;7.78;;;3.30;;
66256;SDS011;53049;43.446;3.698;2022-10-15T14:14:27;5.93;;;3.53;;
66256;SDS011;53049;43.446;3.698;2022-10-15T14:17:10;7.80;;;3.38;;
66256;SDS011;53049;43.446;3.698;2022-10-15T14:19:46;6.50;;;3.17;;
66256;SDS011;53049;43.446;3.698;2022-10-15T14:22:15;7.93;;;3.45;;
66256;SDS011;53049;43.446;3.698;2022-10-15T14:24:49;5.97;;;3.17;;
66256;SDS011;53049;43.446;3.698;2022-10-15T14:27:23;5.40;;;3.15;;
66256;SDS011;53049;43.446;3.698;2022-10-15T14:29:51;6.07;;;3.60;;
66256;SDS011;53049;43.446;3.698;2022-10-15T14:34:52;6.05;;;3.20;;
66256;SDS011;53049;43.446;3.698;2022-10-15T14:37:30;6.72;;;3.42;;
66256;SDS011;53049;43.446;3.698;2022-10-15T14:42:38;6.68;;;3.10;;
66256;SDS011;53049;43.446;3.698;2022-10-15T14:48:05;4.10;;;2.97;;
66256;SDS011;53049;43.446;3.698;2022-10-15T14:50:41;5.40;;;2.50;;
66256;SDS011;53049;43.446;3.698;2022-10-15T14:53:09;5.40;;;2.85;;
66256;SDS011;53049;43.446;3.698;2022-10-15T14:55:41;6.10;;;2.95;;
66256;SDS011;53049;43.446;3.698;2022-10-15T14:58:16;7.05;;;3.35;;
66256;SDS011;53049;43.446;3.698;2022-10-15T15:00:44;6.10;;;2.90;;
66256;SDS011;53049;43.446;3.698;2022-10-15T15:03:14;7.30;;;2.90;;
66256;SDS011;53049;43.446;3.698;2022-10-15T15:05:46;8.43;;;3.33;;
66256;SDS011;53049;43.446;3.698;2022-10-15T15:08:13;7.80;;;2.80;;
66256;SDS011;53049;43.446;3.698;2022-10-15T15:10:40;5.97;;;2.63;;
66256;SDS011;53049;43.446;3.698;2022-10-15T15:13:09;5.30;;;2.45;;
66256;SDS011;53049;43.446;3.698;2022-10-15T15:15:42;5.80;;;2.70;;
66256;SDS011;53049;43.446;3.698;2022-10-15T15:18:11;5.55;;;2.40;;
66256;SDS011;53049;43.446;3.698;2022-10-15T15:20:37;4.45;;;2.40;;
66256;SDS011;53049;43.446;3.698;2022-10-15T15:23:05;3.42;;;2.35;;
66256;SDS011;53049;43.446;3.698;2022-10-15T15:25:33;5.40;;;2.40;;
66256;SDS011;53049;43.446;3.698;2022-10-15T15:28:01;5.15;;;2.38;;
66256;SDS011;53049;43.446;3.698;2022-10-15T15:30:28;5.55;;;2.50;;
66256;SDS011;53049;43.446;3.698;2022-10-15T15:32:56;4.32;;;2.10;;
66256;SDS011;53049;43.446;3.698;2022-10-15T15:35:34;4.60;;;2.17;;
66256;SDS011;53049;43.446;3.698;2022-10-15T15:38:08;3.88;;;2.13;;
66256;SDS011;53049;43.446;3.698;2022-10-15T15:40:34;4.22;;;2.05;;
66256;SDS011;53049;43.446;3.698;2022-10-15T15:43:00;5.55;;;2.20;;
66256;SDS011;53049;43.446;3.698;2022-10-15T15:45:26;2.50;;;1.85;;
66256;SDS011;53049;43.446;3.698;2022-10-15T15:47:52;3.55;;;2.10;;
66256;SDS011;53049;43.446;3.698;2022-10-15T15:50:20;6.78;;;2.20;;
66256;SDS011;53049;43.446;3.698;2022-10-15T15:52:46;6.03;;;2.92;;
66256;SDS011;53049;43.446;3.698;2022-10-15T15:55:12;5.10;;;2.50;;
66256;SDS011;53049;43.446;3.698;2022-10-15T15:57:38;3.38;;;1.90;;
66256;SDS011;53049;43.446;3.698;2022-10-15T16:00:04;4.60;;;2.17;;
66256;SDS011;53049;43.446;3.698;2022-10-15T16:02:31;5.95;;;2.10;;
66256;SDS011;53049;43.446;3.698;2022-10-15T16:04:57;3.97;;;2.05;;
66256;SDS011;53049;43.446;3.698;2022-10-15T16:07:23;3.38;;;1.77;;
66256;SDS011;53049;43.446;3.698;2022-10-15T16:09:48;4.13;;;2.00;;
66256;SDS011;53049;43.446;3.698;2022-10-15T16:12:14;6.57;;;2.00;;
66256;SDS011;53049;43.446;3.698;2022-10-15T16:14:40;4.90;;;2.00;;
66256;SDS011;53049;43.446;3.698;2022-10-15T16:17:05;4.53;;;1.80;;
66256;SDS011;53049;43.446;3.698;2022-10-15T16:19:45;4.78;;;1.98;;
66256;SDS011;53049;43.446;3.698;2022-10-15T16:22:10;2.85;;;1.73;;
66256;SDS011;53049;43.446;3.698;2022-10-15T16:24:37;3.00;;;2.00;;
66256;SDS011;53049;43.446;3.698;2022-10-15T16:27:03;3.85;;;1.98;;
66256;SDS011;53049;43.446;3.698;2022-10-15T16:29:29;5.10;;;1.77;;
66256;SDS011;53049;43.446;3.698;2022-10-15T16:31:55;2.58;;;1.67;;
66256;SDS011;53049;43.446;3.698;2022-10-15T16:37:27;3.83;;;1.92;;
66256;SDS011;53049;43.446;3.698;2022-10-15T16:39:52;4.18;;;2.10;;
66256;SDS011;53049;43.446;3.698;2022-10-15T16:42:18;3.53;;;2.40;;
66256;SDS011;53049;43.446;3.698;2022-10-15T16:44:44;5.28;;;2.25;;
66256;SDS011;53049;43.446;3.698;2022-10-15T16:47:10;5.75;;;2.55;;
66256;SDS011;53049;43.446;3.698;2022-10-15T16:49:36;4.80;;;2.60;;
66256;SDS011;53049;43.446;3.698;2022-10-15T16:52:01;4.25;;;2.38;;
66256;SDS011;53049;43.446;3.698;2022-10-15T16:54:27;4.28;;;2.10;;
66256;SDS011;53049;43.446;3.698;2022-10-15T16:56:53;3.78;;;1.80;;
66256;SDS011;53049;43.446;3.698;2022-10-15T16:59:19;3.67;;;2.10;;
66256;SDS011;53049;43.446;3.698;2022-10-15T17:01:45;2.03;;;1.60;;
66256;SDS011;53049;43.446;3.698;2022-10-15T17:04:11;7.32;;;1.85;;
66256;SDS011;53049;43.446;3.698;2022-10-15T17:06:36;3.20;;;1.58;;
66256;SDS011;53049;43.446;3.698;2022-10-15T17:09:02;6.07;;;1.90;;
66256;SDS011;53049;43.446;3.698;2022-10-15T17:11:33;4.60;;;2.30;;
66256;SDS011;53049;43.446;3.698;2022-10-15T17:14:04;4.65;;;2.08;;